sensor_id;sensor_type;location;lat;lon;timestamp;temperature;humidity
72277;SHT30;61204;49.980;8.358;2023-01-19T00:01:54;-3.21;92.95
72277;SHT30;61204;49.980;8.358;2023-01-19T00:04:19;-3.29;92.80
72277;SHT30;61204;49.980;8.358;2023-01-19T00:06:45;-3.30;93.11
72277;SHT30;61204;49.980;8.358;2023-01-19T00:09:10;-3.36;93.35
72277;SHT30;61204;49.980;8.358;2023-01-19T00:11:36;-3.30;93.24
72277;SHT30;61204;49.980;8.358;2023-01-19T00:14:02;-3.32;93.29
72277;SHT30;61204;49.980;8.358;2023-01-19T00:16:27;-3.30;93.18
72277;SHT30;61204;49.980;8.358;2023-01-19T00:18:53;-3.33;93.21
72277;SHT30;61204;49.980;8.358;2023-01-19T00:21:19;-3.37;93.33
72277;SHT30;61204;49.980;8.358;2023-01-19T00:23:46;-3.30;93.81
72277;SHT30;61204;49.980;8.358;2023-01-19T00:26:13;-3.30;93.87
72277;SHT30;61204;49.980;8.358;2023-01-19T00:28:41;-3.40;93.59
72277;SHT30;61204;49.980;8.358;2023-01-19T00:31:07;-3.50;93.50
72277;SHT30;61204;49.980;8.358;2023-01-19T00:33:33;-3.54;93.90
72277;SHT30;61204;49.980;8.358;2023-01-19T00:36:02;-3.55;94.28
72277;SHT30;61204;49.980;8.358;2023-01-19T00:38:28;-3.53;94.47
72277;SHT30;61204;49.980;8.358;2023-01-19T00:40:53;-3.48;94.48
72277;SHT30;61204;49.980;8.358;2023-01-19T00:43:19;-3.50;94.41
72277;SHT30;61204;49.980;8.358;2023-01-19T00:45:47;-3.50;94.56
72277;SHT30;61204;49.980;8.358;2023-01-19T00:48:12;-3.42;94.53
72277;SHT30;61204;49.980;8.358;2023-01-19T00:50:38;-3.40;94.04
72277;SHT30;61204;49.980;8.358;2023-01-19T00:53:03;-3.40;93.84
72277;SHT30;61204;49.980;8.358;2023-01-19T00:55:30;-3.43;93.73
72277;SHT30;61204;49.980;8.358;2023-01-19T00:57:57;-3.42;93.86
72277;SHT30;61204;49.980;8.358;2023-01-19T01:00:23;-3.39;94.16
72277;SHT30;61204;49.980;8.358;2023-01-19T01:02:52;-3.36;94.20
72277;SHT30;61204;49.980;8.358;2023-01-19T01:05:18;-3.36;94.17
72277;SHT30;61204;49.980;8.358;2023-01-19T01:07:44;-3.33;94.44
72277;SHT30;61204;49.980;8.358;2023-01-19T01:10:13;-3.33;94.46
72277;SHT30;61204;49.980;8.358;2023-01-19T01:12:41;-3.33;94.37
72277;SHT30;61204;49.980;8.358;2023-01-19T01:15:09;-3.33;94.38
72277;SHT30;61204;49.980;8.358;2023-01-19T01:17:37;-3.40;94.39
72277;SHT30;61204;49.980;8.358;2023-01-19T01:20:11;-3.48;94.54
72277;SHT30;61204;49.980;8.358;2023-01-19T01:22:41;-3.47;94.93
72277;SHT30;61204;49.980;8.358;2023-01-19T01:25:13;-3.42;95.04
72277;SHT30;61204;49.980;8.358;2023-01-19T01:27:41;-3.46;95.05
72277;SHT30;61204;49.980;8.358;2023-01-19T01:30:08;-3.51;95.39
72277;SHT30;61204;49.980;8.358;2023-01-19T01:32:36;-3.43;95.66
72277;SHT30;61204;49.980;8.358;2023-01-19T01:35:01;-3.48;95.31
72277;SHT30;61204;49.980;8.358;2023-01-19T01:37:27;-3.57;95.37
72277;SHT30;61204;49.980;8.358;2023-01-19T01:39:53;-3.64;95.41
72277;SHT30;61204;49.980;8.358;2023-01-19T01:42:19;-3.68;95.52
72277;SHT30;61204;49.980;8.358;2023-01-19T01:44:53;-3.75;95.57
72277;SHT30;61204;49.980;8.358;2023-01-19T01:47:35;-3.70;95.97
72277;SHT30;61204;49.980;8.358;2023-01-19T01:50:07;-3.57;95.89
72277;SHT30;61204;49.980;8.358;2023-01-19T01:52:41;-3.65;95.77
72277;SHT30;61204;49.980;8.358;2023-01-19T01:55:11;-3.68;95.88
72277;SHT30;61204;49.980;8.358;2023-01-19T01:57:42;-3.71;95.93
72277;SHT30;61204;49.980;8.358;2023-01-19T02:00:12;-3.78;95.70
72277;SHT30;61204;49.980;8.358;2023-01-19T02:02:38;-3.83;95.61
72277;SHT30;61204;49.980;8.358;2023-01-19T02:05:33;-3.67;95.57
72277;SHT30;61204;49.980;8.358;2023-01-19T02:08:03;-3.81;95.14
72277;SHT30;61204;49.980;8.358;2023-01-19T02:10:54;-3.92;95.25
72277;SHT30;61204;49.980;8.358;2023-01-19T02:13:41;-3.96;95.34
72277;SHT30;61204;49.980;8.358;2023-01-19T02:16:12;-4.02;95.44
72277;SHT30;61204;49.980;8.358;2023-01-19T02:18:39;-4.10;95.32
72277;SHT30;61204;49.980;8.358;2023-01-19T02:21:34;-3.99;95.99
72277;SHT30;61204;49.980;8.358;2023-01-19T02:24:13;-3.64;96.80
72277;SHT30;61204;49.980;8.358;2023-01-19T02:26:41;-3.44;96.54
72277;SHT30;61204;49.980;8.358;2023-01-19T02:29:21;-3.21;96.30
72277;SHT30;61204;49.980;8.358;2023-01-19T02:31:50;-3.02;95.76
72277;SHT30;61204;49.980;8.358;2023-01-19T02:34:18;-3.06;95.47
72277;SHT30;61204;49.980;8.358;2023-01-19T02:36:56;-3.09;95.52
72277;SHT30;61204;49.980;8.358;2023-01-19T02:39:28;-3.09;95.44
72277;SHT30;61204;49.980;8.358;2023-01-19T02:42:02;-3.12;95.33
72277;SHT30;61204;49.980;8.358;2023-01-19T02:44:32;-3.16;95.22
72277;SHT30;61204;49.980;8.358;2023-01-19T02:47:00;-3.21;95.42
72277;SHT30;61204;49.980;8.358;2023-01-19T02:49:27;-3.15;95.45
72277;SHT30;61204;49.980;8.358;2023-01-19T02:51:54;-3.19;95.42
72277;SHT30;61204;49.980;8.358;2023-01-19T02:57:34;-3.36;95.19
72277;SHT30;61204;49.980;8.358;2023-01-19T03:06:08;-3.47;95.84
72277;SHT30;61204;49.980;8.358;2023-01-19T03:09:03;-3.48;95.95
72277;SHT30;61204;49.980;8.358;2023-01-19T03:11:37;-3.46;96.05
72277;SHT30;61204;49.980;8.358;2023-01-19T03:14:09;-3.42;96.03
72277;SHT30;61204;49.980;8.358;2023-01-19T03:16:42;-3.39;96.00
72277;SHT30;61204;49.980;8.358;2023-01-19T03:19:17;-3.37;95.79
72277;SHT30;61204;49.980;8.358;2023-01-19T03:21:57;-3.36;95.87
72277;SHT30;61204;49.980;8.358;2023-01-19T03:24:27;-3.43;95.82
72277;SHT30;61204;49.980;8.358;2023-01-19T03:27:01;-3.39;96.09
72277;SHT30;61204;49.980;8.358;2023-01-19T03:29:33;-3.34;95.96
72277;SHT30;61204;49.980;8.358;2023-01-19T03:32:10;-3.40;95.87
72277;SHT30;61204;49.980;8.358;2023-01-19T03:34:41;-3.44;95.95
72277;SHT30;61204;49.980;8.358;2023-01-19T03:37:10;-3.51;96.07
72277;SHT30;61204;49.980;8.358;2023-01-19T03:39:38;-3.51;96.30
72277;SHT30;61204;49.980;8.358;2023-01-19T03:42:13;-3.57;96.40
72277;SHT30;61204;49.980;8.358;2023-01-19T03:44:41;-3.54;96.62
72277;SHT30;61204;49.980;8.358;2023-01-19T03:47:10;-3.51;96.60
72277;SHT30;61204;49.980;8.358;2023-01-19T03:49:40;-3.39;96.74
72277;SHT30;61204;49.980;8.358;2023-01-19T03:52:08;-3.16;96.29
72277;SHT30;61204;49.980;8.358;2023-01-19T03:54:33;-3.12;95.98
72277;SHT30;61204;49.980;8.358;2023-01-19T03:56:59;-3.03;95.86
72277;SHT30;61204;49.980;8.358;2023-01-19T03:59:24;-3.00;95.94
72277;SHT30;61204;49.980;8.358;2023-01-19T04:01:49;-2.91;95.97
72277;SHT30;61204;49.980;8.358;2023-01-19T04:04:15;-2.93;95.93
72277;SHT30;61204;49.980;8.358;2023-01-19T04:06:42;-2.93;95.94
72277;SHT30;61204;49.980;8.358;2023-01-19T04:09:07;-2.89;96.12
72277;SHT30;61204;49.980;8.358;2023-01-19T04:11:33;-2.81;96.28
72277;SHT30;61204;49.980;8.358;2023-01-19T04:13:58;-2.79;96.22
72277;SHT30;61204;49.980;8.358;2023-01-19T04:16:24;-2.72;96.13
72277;SHT30;61204;49.980;8.358;2023-01-19T04:18:50;-2.72;96.10
72277;SHT30;61204;49.980;8.358;2023-01-19T04:21:17;-2.67;96.00
72277;SHT30;61204;49.980;8.358;2023-01-19T04:23:44;-2.61;95.79
72277;SHT30;61204;49.980;8.358;2023-01-19T04:26:10;-2.61;95.80
72277;SHT30;61204;49.980;8.358;2023-01-19T04:28:36;-2.65;95.85
72277;SHT30;61204;49.980;8.358;2023-01-19T04:31:02;-2.57;95.79
72277;SHT30;61204;49.980;8.358;2023-01-19T04:33:29;-2.53;95.69
72277;SHT30;61204;49.980;8.358;2023-01-19T04:35:55;-2.51;95.61
72277;SHT30;61204;49.980;8.358;2023-01-19T04:38:21;-2.47;95.67
72277;SHT30;61204;49.980;8.358;2023-01-19T04:40:48;-2.43;95.75
72277;SHT30;61204;49.980;8.358;2023-01-19T04:43:15;-2.37;95.76
72277;SHT30;61204;49.980;8.358;2023-01-19T04:45:41;-2.25;95.72
72277;SHT30;61204;49.980;8.358;2023-01-19T04:48:09;-2.13;95.43
72277;SHT30;61204;49.980;8.358;2023-01-19T04:50:35;-2.06;95.17
72277;SHT30;61204;49.980;8.358;2023-01-19T04:53:01;-1.91;94.68
72277;SHT30;61204;49.980;8.358;2023-01-19T04:55:29;-1.82;94.13
72277;SHT30;61204;49.980;8.358;2023-01-19T04:57:54;-1.85;94.27
72277;SHT30;61204;49.980;8.358;2023-01-19T05:00:20;-1.78;94.08
72277;SHT30;61204;49.980;8.358;2023-01-19T05:02:47;-1.74;94.18
72277;SHT30;61204;49.980;8.358;2023-01-19T05:05:13;-1.74;94.22
72277;SHT30;61204;49.980;8.358;2023-01-19T05:07:39;-1.74;94.12
72277;SHT30;61204;49.980;8.358;2023-01-19T05:10:10;-1.71;94.16
72277;SHT30;61204;49.980;8.358;2023-01-19T05:12:36;-1.68;94.17
72277;SHT30;61204;49.980;8.358;2023-01-19T05:15:02;-1.68;94.17
72277;SHT30;61204;49.980;8.358;2023-01-19T05:17:28;-1.60;94.37
72277;SHT30;61204;49.980;8.358;2023-01-19T05:19:54;-1.54;94.26
72277;SHT30;61204;49.980;8.358;2023-01-19T05:22:19;-1.47;94.14
72277;SHT30;61204;49.980;8.358;2023-01-19T05:24:45;-1.50;94.11
72277;SHT30;61204;49.980;8.358;2023-01-19T05:27:11;-1.49;94.33
72277;SHT30;61204;49.980;8.358;2023-01-19T05:29:36;-1.39;94.38
72277;SHT30;61204;49.980;8.358;2023-01-19T05:32:02;-1.35;94.65
72277;SHT30;61204;49.980;8.358;2023-01-19T05:34:28;-1.32;94.49
72277;SHT30;61204;49.980;8.358;2023-01-19T05:36:53;-1.26;94.51
72277;SHT30;61204;49.980;8.358;2023-01-19T05:39:19;-1.20;94.41
72277;SHT30;61204;49.980;8.358;2023-01-19T05:41:44;-1.05;93.87
72277;SHT30;61204;49.980;8.358;2023-01-19T05:44:11;-1.08;93.80
72277;SHT30;61204;49.980;8.358;2023-01-19T05:46:39;-1.02;93.72
72277;SHT30;61204;49.980;8.358;2023-01-19T05:49:05;-1.01;93.85
72277;SHT30;61204;49.980;8.358;2023-01-19T05:51:34;-0.98;93.85
72277;SHT30;61204;49.980;8.358;2023-01-19T05:54:06;-0.97;93.75
72277;SHT30;61204;49.980;8.358;2023-01-19T05:56:34;-0.97;93.69
72277;SHT30;61204;49.980;8.358;2023-01-19T05:59:00;-0.91;93.78
72277;SHT30;61204;49.980;8.358;2023-01-19T06:01:26;-0.95;93.84
72277;SHT30;61204;49.980;8.358;2023-01-19T06:03:52;-0.87;93.64
72277;SHT30;61204;49.980;8.358;2023-01-19T06:06:17;-0.85;93.46
72277;SHT30;61204;49.980;8.358;2023-01-19T06:08:44;-0.81;93.43
72277;SHT30;61204;49.980;8.358;2023-01-19T06:11:10;-0.80;93.46
72277;SHT30;61204;49.980;8.358;2023-01-19T06:13:36;-0.81;93.58
72277;SHT30;61204;49.980;8.358;2023-01-19T06:16:03;-0.74;93.54
72277;SHT30;61204;49.980;8.358;2023-01-19T06:18:29;-0.71;93.55
72277;SHT30;61204;49.980;8.358;2023-01-19T06:20:54;-0.66;93.34
72277;SHT30;61204;49.980;8.358;2023-01-19T06:23:28;-0.59;93.19
72277;SHT30;61204;49.980;8.358;2023-01-19T06:25:57;-0.66;93.25
72277;SHT30;61204;49.980;8.358;2023-01-19T06:28:23;-0.64;93.48
72277;SHT30;61204;49.980;8.358;2023-01-19T06:30:50;-0.56;93.10
72277;SHT30;61204;49.980;8.358;2023-01-19T06:33:18;-0.49;92.71
72277;SHT30;61204;49.980;8.358;2023-01-19T06:35:45;-0.42;92.44
72277;SHT30;61204;49.980;8.358;2023-01-19T06:38:11;-0.46;92.41
72277;SHT30;61204;49.980;8.358;2023-01-19T06:40:42;-0.42;92.47
72277;SHT30;61204;49.980;8.358;2023-01-19T06:43:07;-0.43;92.52
72277;SHT30;61204;49.980;8.358;2023-01-19T06:45:33;-0.37;92.53
72277;SHT30;61204;49.980;8.358;2023-01-19T06:47:59;-0.32;92.37
72277;SHT30;61204;49.980;8.358;2023-01-19T06:50:24;-0.39;92.48
72277;SHT30;61204;49.980;8.358;2023-01-19T06:52:50;-0.43;92.67
72277;SHT30;61204;49.980;8.358;2023-01-19T06:55:16;-0.37;92.71
72277;SHT30;61204;49.980;8.358;2023-01-19T06:57:42;-0.39;92.73
72277;SHT30;61204;49.980;8.358;2023-01-19T07:00:09;-0.40;92.83
72277;SHT30;61204;49.980;8.358;2023-01-19T07:02:36;-0.44;93.01
72277;SHT30;61204;49.980;8.358;2023-01-19T07:05:06;-0.46;93.12
72277;SHT30;61204;49.980;8.358;2023-01-19T07:07:33;-0.46;93.17
72277;SHT30;61204;49.980;8.358;2023-01-19T07:09:59;-0.44;93.16
72277;SHT30;61204;49.980;8.358;2023-01-19T07:12:25;-0.42;93.15
72277;SHT30;61204;49.980;8.358;2023-01-19T07:14:50;-0.32;92.84
72277;SHT30;61204;49.980;8.358;2023-01-19T07:17:17;-0.36;92.79
72277;SHT30;61204;49.980;8.358;2023-01-19T07:19:43;-0.28;92.84
72277;SHT30;61204;49.980;8.358;2023-01-19T07:22:08;-0.29;92.81
72277;SHT30;61204;49.980;8.358;2023-01-19T07:24:34;-0.28;92.96
72277;SHT30;61204;49.980;8.358;2023-01-19T07:27:00;-0.23;93.03
72277;SHT30;61204;49.980;8.358;2023-01-19T07:29:25;-0.15;92.92
72277;SHT30;61204;49.980;8.358;2023-01-19T07:31:51;-0.04;92.66
72277;SHT30;61204;49.980;8.358;2023-01-19T07:34:19;0.13;92.05
72277;SHT30;61204;49.980;8.358;2023-01-19T07:36:45;0.20;91.84
72277;SHT30;61204;49.980;8.358;2023-01-19T07:39:11;0.24;91.96
72277;SHT30;61204;49.980;8.358;2023-01-19T07:41:37;0.31;91.64
72277;SHT30;61204;49.980;8.358;2023-01-19T07:44:02;0.39;91.53
72277;SHT30;61204;49.980;8.358;2023-01-19T07:46:30;0.46;91.16
72277;SHT30;61204;49.980;8.358;2023-01-19T07:48:56;0.46;91.13
72277;SHT30;61204;49.980;8.358;2023-01-19T07:51:21;0.46;91.26
72277;SHT30;61204;49.980;8.358;2023-01-19T07:53:50;0.46;91.38
72277;SHT30;61204;49.980;8.358;2023-01-19T07:56:16;0.53;91.03
72277;SHT30;61204;49.980;8.358;2023-01-19T07:58:41;0.56;90.72
72277;SHT30;61204;49.980;8.358;2023-01-19T08:01:12;0.48;90.55
72277;SHT30;61204;49.980;8.358;2023-01-19T08:03:38;0.30;90.94
72277;SHT30;61204;49.980;8.358;2023-01-19T08:06:04;0.13;91.42
72277;SHT30;61204;49.980;8.358;2023-01-19T08:08:31;0.12;91.40
72277;SHT30;61204;49.980;8.358;2023-01-19T08:10:57;0.02;91.61
72277;SHT30;61204;49.980;8.358;2023-01-19T08:13:24;0.03;91.56
72277;SHT30;61204;49.980;8.358;2023-01-19T08:15:51;0.07;91.41
72277;SHT30;61204;49.980;8.358;2023-01-19T08:18:18;0.06;91.44
72277;SHT30;61204;49.980;8.358;2023-01-19T08:20:45;-0.04;91.62
72277;SHT30;61204;49.980;8.358;2023-01-19T08:23:10;-0.04;91.66
72277;SHT30;61204;49.980;8.358;2023-01-19T08:25:41;0.16;92.02
72277;SHT30;61204;49.980;8.358;2023-01-19T08:28:10;0.84;89.99
72277;SHT30;61204;49.980;8.358;2023-01-19T08:30:37;1.24;87.87
72277;SHT30;61204;49.980;8.358;2023-01-19T08:33:04;1.00;88.16
72277;SHT30;61204;49.980;8.358;2023-01-19T08:35:37;1.40;87.48
72277;SHT30;61204;49.980;8.358;2023-01-19T08:38:05;1.71;86.43
72277;SHT30;61204;49.980;8.358;2023-01-19T08:40:35;2.09;85.76
72277;SHT30;61204;49.980;8.358;2023-01-19T08:43:05;2.47;85.16
72277;SHT30;61204;49.980;8.358;2023-01-19T08:45:36;3.06;84.18
72277;SHT30;61204;49.980;8.358;2023-01-19T08:48:13;3.26;81.16
72277;SHT30;61204;49.980;8.358;2023-01-19T08:50:39;3.55;80.71
72277;SHT30;61204;49.980;8.358;2023-01-19T08:53:05;3.42;79.58
72277;SHT30;61204;49.980;8.358;2023-01-19T08:55:32;3.68;80.54
72277;SHT30;61204;49.980;8.358;2023-01-19T08:58:00;3.82;79.24
72277;SHT30;61204;49.980;8.358;2023-01-19T09:00:28;3.96;79.96
72277;SHT30;61204;49.980;8.358;2023-01-19T09:02:56;4.24;79.21
72277;SHT30;61204;49.980;8.358;2023-01-19T09:05:22;4.31;76.54
72277;SHT30;61204;49.980;8.358;2023-01-19T09:07:50;4.55;76.19
72277;SHT30;61204;49.980;8.358;2023-01-19T09:10:16;4.89;75.24
72277;SHT30;61204;49.980;8.358;2023-01-19T09:12:43;5.30;75.42
72277;SHT30;61204;49.980;8.358;2023-01-19T09:15:11;5.47;74.11
72277;SHT30;61204;49.980;8.358;2023-01-19T09:17:40;5.68;71.49
72277;SHT30;61204;49.980;8.358;2023-01-19T09:20:09;5.48;71.64
72277;SHT30;61204;49.980;8.358;2023-01-19T09:22:35;5.52;72.91
72277;SHT30;61204;49.980;8.358;2023-01-19T09:25:00;5.30;72.15
72277;SHT30;61204;49.980;8.358;2023-01-19T09:27:26;5.78;72.54
72277;SHT30;61204;49.980;8.358;2023-01-19T09:29:52;6.34;69.31
72277;SHT30;61204;49.980;8.358;2023-01-19T09:32:19;6.86;70.42
72277;SHT30;61204;49.980;8.358;2023-01-19T09:34:47;7.52;67.44
72277;SHT30;61204;49.980;8.358;2023-01-19T09:37:13;7.18;65.56
72277;SHT30;61204;49.980;8.358;2023-01-19T09:39:40;6.51;67.25
72277;SHT30;61204;49.980;8.358;2023-01-19T09:42:43;6.27;68.69
72277;SHT30;61204;49.980;8.358;2023-01-19T09:45:18;5.73;69.01
72277;SHT30;61204;49.980;8.358;2023-01-19T09:47:51;5.51;70.45
72277;SHT30;61204;49.980;8.358;2023-01-19T09:50:25;5.48;69.34
72277;SHT30;61204;49.980;8.358;2023-01-19T09:52:57;5.49;70.04
72277;SHT30;61204;49.980;8.358;2023-01-19T09:55:39;5.30;69.12
72277;SHT30;61204;49.980;8.358;2023-01-19T09:58:13;5.10;69.85
72277;SHT30;61204;49.980;8.358;2023-01-19T10:00:46;4.75;70.45
72277;SHT30;61204;49.980;8.358;2023-01-19T10:03:19;4.55;71.36
72277;SHT30;61204;49.980;8.358;2023-01-19T10:05:52;4.52;72.46
72277;SHT30;61204;49.980;8.358;2023-01-19T10:11:00;4.64;72.12
72277;SHT30;61204;49.980;8.358;2023-01-19T10:13:42;4.71;72.67
72277;SHT30;61204;49.980;8.358;2023-01-19T10:19:21;4.55;71.96
72277;SHT30;61204;49.980;8.358;2023-01-19T10:21:54;4.45;71.26
72277;SHT30;61204;49.980;8.358;2023-01-19T10:24:27;4.50;72.06
72277;SHT30;61204;49.980;8.358;2023-01-19T10:26:57;4.42;72.15
72277;SHT30;61204;49.980;8.358;2023-01-19T10:29:29;4.36;72.23
72277;SHT30;61204;49.980;8.358;2023-01-19T10:32:09;4.37;71.80
72277;SHT30;61204;49.980;8.358;2023-01-19T10:34:38;4.25;71.62
72277;SHT30;61204;49.980;8.358;2023-01-19T10:37:38;4.13;72.53
72277;SHT30;61204;49.980;8.358;2023-01-19T10:42:35;4.23;71.80
72277;SHT30;61204;49.980;8.358;2023-01-19T10:45:03;4.21;72.95
72277;SHT30;61204;49.980;8.358;2023-01-19T10:47:38;4.25;72.43
72277;SHT30;61204;49.980;8.358;2023-01-19T10:50:22;4.10;72.77
72277;SHT30;61204;49.980;8.358;2023-01-19T10:52:50;4.04;73.19
72277;SHT30;61204;49.980;8.358;2023-01-19T10:57:49;4.18;73.01
72277;SHT30;61204;49.980;8.358;2023-01-19T11:00:37;4.23;72.70
72277;SHT30;61204;49.980;8.358;2023-01-19T11:03:24;4.10;73.63
72277;SHT30;61204;49.980;8.358;2023-01-19T11:08:44;4.20;73.85
72277;SHT30;61204;49.980;8.358;2023-01-19T11:11:11;4.20;73.00
72277;SHT30;61204;49.980;8.358;2023-01-19T11:13:38;4.23;72.97
72277;SHT30;61204;49.980;8.358;2023-01-19T11:16:07;4.16;72.43
72277;SHT30;61204;49.980;8.358;2023-01-19T11:18:44;4.23;73.09
72277;SHT30;61204;49.980;8.358;2023-01-19T11:21:14;4.27;72.70
72277;SHT30;61204;49.980;8.358;2023-01-19T11:23:47;4.30;72.62
72277;SHT30;61204;49.980;8.358;2023-01-19T11:29:20;4.16;71.67
72277;SHT30;61204;49.980;8.358;2023-01-19T11:31:51;4.03;72.00
72277;SHT30;61204;49.980;8.358;2023-01-19T11:34:35;3.99;71.99
72277;SHT30;61204;49.980;8.358;2023-01-19T11:37:08;4.00;72.48
72277;SHT30;61204;49.980;8.358;2023-01-19T11:39:54;4.03;71.90
72277;SHT30;61204;49.980;8.358;2023-01-19T11:42:22;4.03;71.81
72277;SHT30;61204;49.980;8.358;2023-01-19T11:47:40;4.09;72.02
72277;SHT30;61204;49.980;8.358;2023-01-19T11:50:35;4.10;72.48
72277;SHT30;61204;49.980;8.358;2023-01-19T11:53:22;4.14;72.05
72277;SHT30;61204;49.980;8.358;2023-01-19T11:55:53;4.16;72.41
72277;SHT30;61204;49.980;8.358;2023-01-19T11:58:23;4.14;72.33
72277;SHT30;61204;49.980;8.358;2023-01-19T12:06:10;4.11;72.91
72277;SHT30;61204;49.980;8.358;2023-01-19T12:08:46;4.17;73.11
72277;SHT30;61204;49.980;8.358;2023-01-19T12:11:22;4.16;72.73
72277;SHT30;61204;49.980;8.358;2023-01-19T12:13:55;4.18;72.70
72277;SHT30;61204;49.980;8.358;2023-01-19T12:16:30;4.21;70.82
72277;SHT30;61204;49.980;8.358;2023-01-19T12:19:09;4.06;71.63
72277;SHT30;61204;49.980;8.358;2023-01-19T12:21:40;4.02;72.37
72277;SHT30;61204;49.980;8.358;2023-01-19T12:26:51;4.14;71.80
72277;SHT30;61204;49.980;8.358;2023-01-19T12:29:20;4.30;72.10
72277;SHT30;61204;49.980;8.358;2023-01-19T12:34:45;4.44;72.92
72277;SHT30;61204;49.980;8.358;2023-01-19T12:39:53;4.47;71.77
72277;SHT30;61204;49.980;8.358;2023-01-19T12:42:25;4.34;71.56
72277;SHT30;61204;49.980;8.358;2023-01-19T12:47:33;4.18;73.30
72277;SHT30;61204;49.980;8.358;2023-01-19T12:50:06;4.16;72.54
72277;SHT30;61204;49.980;8.358;2023-01-19T12:52:47;4.16;73.74
72277;SHT30;61204;49.980;8.358;2023-01-19T13:00:36;4.10;73.91
72277;SHT30;61204;49.980;8.358;2023-01-19T13:21:37;3.81;77.63
72277;SHT30;61204;49.980;8.358;2023-01-19T13:24:06;3.74;78.37
72277;SHT30;61204;49.980;8.358;2023-01-19T13:26:54;3.62;80.33
72277;SHT30;61204;49.980;8.358;2023-01-19T13:29:33;3.57;80.81
72277;SHT30;61204;49.980;8.358;2023-01-19T13:32:03;3.48;80.96
72277;SHT30;61204;49.980;8.358;2023-01-19T13:34:45;3.44;80.94
72277;SHT30;61204;49.980;8.358;2023-01-19T13:37:21;3.24;81.96
72277;SHT30;61204;49.980;8.358;2023-01-19T13:39:51;3.33;82.26
72277;SHT30;61204;49.980;8.358;2023-01-19T13:42:29;3.17;83.02
72277;SHT30;61204;49.980;8.358;2023-01-19T13:47:51;3.16;83.97
72277;SHT30;61204;49.980;8.358;2023-01-19T13:50:26;3.30;83.88
72277;SHT30;61204;49.980;8.358;2023-01-19T13:52:54;3.33;81.09
72277;SHT30;61204;49.980;8.358;2023-01-19T13:55:22;3.35;82.05
72277;SHT30;61204;49.980;8.358;2023-01-19T13:57:49;3.41;81.89
72277;SHT30;61204;49.980;8.358;2023-01-19T14:00:27;3.55;80.97
72277;SHT30;61204;49.980;8.358;2023-01-19T14:02:59;3.62;79.82
72277;SHT30;61204;49.980;8.358;2023-01-19T14:05:35;3.72;79.05
72277;SHT30;61204;49.980;8.358;2023-01-19T14:13:17;3.85;77.81
72277;SHT30;61204;49.980;8.358;2023-01-19T14:15:58;3.82;78.50
72277;SHT30;61204;49.980;8.358;2023-01-19T14:18:32;3.78;78.01
72277;SHT30;61204;49.980;8.358;2023-01-19T14:21:01;3.76;78.76
72277;SHT30;61204;49.980;8.358;2023-01-19T14:23:41;3.78;77.98
72277;SHT30;61204;49.980;8.358;2023-01-19T14:34:32;3.62;78.83
72277;SHT30;61204;49.980;8.358;2023-01-19T14:37:15;3.64;79.86
72277;SHT30;61204;49.980;8.358;2023-01-19T14:39:46;3.71;79.03
72277;SHT30;61204;49.980;8.358;2023-01-19T14:42:32;3.81;78.44
72277;SHT30;61204;49.980;8.358;2023-01-19T14:45:02;3.86;78.24
72277;SHT30;61204;49.980;8.358;2023-01-19T14:47:40;3.87;77.11
72277;SHT30;61204;49.980;8.358;2023-01-19T14:50:19;3.85;77.48
72277;SHT30;61204;49.980;8.358;2023-01-19T14:52:57;3.62;78.57
72277;SHT30;61204;49.980;8.358;2023-01-19T14:58:34;3.31;82.27
72277;SHT30;61204;49.980;8.358;2023-01-19T15:01:00;3.19;83.01
72277;SHT30;61204;49.980;8.358;2023-01-19T15:03:27;3.16;83.37
72277;SHT30;61204;49.980;8.358;2023-01-19T15:05:56;2.99;84.29
72277;SHT30;61204;49.980;8.358;2023-01-19T15:08:30;3.03;84.10
72277;SHT30;61204;49.980;8.358;2023-01-19T15:11:01;2.97;85.39
72277;SHT30;61204;49.980;8.358;2023-01-19T15:13:50;2.91;84.51
72277;SHT30;61204;49.980;8.358;2023-01-19T15:16:16;2.86;85.40
72277;SHT30;61204;49.980;8.358;2023-01-19T15:18:42;2.84;85.49
72277;SHT30;61204;49.980;8.358;2023-01-19T15:21:13;2.84;85.59
72277;SHT30;61204;49.980;8.358;2023-01-19T15:23:40;2.72;85.61
72277;SHT30;61204;49.980;8.358;2023-01-19T15:26:06;2.69;84.88
72277;SHT30;61204;49.980;8.358;2023-01-19T15:28:37;2.65;85.26
72277;SHT30;61204;49.980;8.358;2023-01-19T15:31:03;2.68;84.80
72277;SHT30;61204;49.980;8.358;2023-01-19T15:33:29;2.64;85.45
72277;SHT30;61204;49.980;8.358;2023-01-19T15:35:55;2.61;85.49
72277;SHT30;61204;49.980;8.358;2023-01-19T15:38:20;2.66;85.76
72277;SHT30;61204;49.980;8.358;2023-01-19T15:40:46;2.66;84.87
72277;SHT30;61204;49.980;8.358;2023-01-19T15:43:12;2.59;85.90
72277;SHT30;61204;49.980;8.358;2023-01-19T15:45:41;2.54;85.81
72277;SHT30;61204;49.980;8.358;2023-01-19T15:48:12;2.51;86.44
72277;SHT30;61204;49.980;8.358;2023-01-19T15:50:47;2.44;86.76
72277;SHT30;61204;49.980;8.358;2023-01-19T15:53:15;2.41;86.75
72277;SHT30;61204;49.980;8.358;2023-01-19T15:55:47;2.34;87.62
72277;SHT30;61204;49.980;8.358;2023-01-19T15:58:13;2.27;88.11
72277;SHT30;61204;49.980;8.358;2023-01-19T16:00:38;2.19;88.09
72277;SHT30;61204;49.980;8.358;2023-01-19T16:03:07;2.17;87.95
72277;SHT30;61204;49.980;8.358;2023-01-19T16:05:34;2.12;87.89
72277;SHT30;61204;49.980;8.358;2023-01-19T16:07:59;2.05;88.50
72277;SHT30;61204;49.980;8.358;2023-01-19T16:10:25;2.03;88.49
72277;SHT30;61204;49.980;8.358;2023-01-19T16:12:50;1.99;88.98
72277;SHT30;61204;49.980;8.358;2023-01-19T16:15:16;1.96;89.02
72277;SHT30;61204;49.980;8.358;2023-01-19T16:17:43;1.96;89.02
72277;SHT30;61204;49.980;8.358;2023-01-19T16:20:09;1.94;89.25
72277;SHT30;61204;49.980;8.358;2023-01-19T16:22:36;1.86;89.53
72277;SHT30;61204;49.980;8.358;2023-01-19T16:25:05;1.81;89.61
72277;SHT30;61204;49.980;8.358;2023-01-19T16:27:30;1.76;89.61
72277;SHT30;61204;49.980;8.358;2023-01-19T16:29:56;1.76;89.56
72277;SHT30;61204;49.980;8.358;2023-01-19T16:32:24;1.72;89.71
72277;SHT30;61204;49.980;8.358;2023-01-19T16:34:49;1.67;89.79
72277;SHT30;61204;49.980;8.358;2023-01-19T16:37:14;1.62;90.01
72277;SHT30;61204;49.980;8.358;2023-01-19T16:39:40;1.57;90.14
72277;SHT30;61204;49.980;8.358;2023-01-19T16:42:07;1.50;90.37
72277;SHT30;61204;49.980;8.358;2023-01-19T16:44:33;1.52;90.32
72277;SHT30;61204;49.980;8.358;2023-01-19T16:46:58;1.47;90.54
72277;SHT30;61204;49.980;8.358;2023-01-19T16:49:25;1.41;90.48
72277;SHT30;61204;49.980;8.358;2023-01-19T16:51:52;1.34;90.65
72277;SHT30;61204;49.980;8.358;2023-01-19T16:54:23;1.30;91.01
72277;SHT30;61204;49.980;8.358;2023-01-19T16:56:53;1.27;91.17
72277;SHT30;61204;49.980;8.358;2023-01-19T16:59:20;1.24;91.28
72277;SHT30;61204;49.980;8.358;2023-01-19T17:01:46;1.23;91.32
72277;SHT30;61204;49.980;8.358;2023-01-19T17:04:15;1.22;91.39
72277;SHT30;61204;49.980;8.358;2023-01-19T17:06:42;1.20;91.53
72277;SHT30;61204;49.980;8.358;2023-01-19T17:09:07;1.19;91.68
72277;SHT30;61204;49.980;8.358;2023-01-19T17:11:34;1.22;91.70
72277;SHT30;61204;49.980;8.358;2023-01-19T17:14:03;1.22;91.66
72277;SHT30;61204;49.980;8.358;2023-01-19T17:16:31;1.22;91.57
72277;SHT30;61204;49.980;8.358;2023-01-19T17:19:02;1.23;91.48
72277;SHT30;61204;49.980;8.358;2023-01-19T17:21:28;1.24;91.45
72277;SHT30;61204;49.980;8.358;2023-01-19T17:23:55;1.27;91.53